Dades meteomassalio
Diari Summary for Juliol 24, 2017 Units:  Metric    English   Both
« Previous Day
Next Day »
Diari Semanal Mensual Anual Personalitzat
  Maxima: Minima: Mijana:
Temperatura: 28.8 °C 19.3 °C 23.6 °C
Rosada: 17.8 °C 11.6 °C 14.2 °C
Humitat: 89 % 36 % 57 %
Velocitat del vent: 50.0 km/h 0.0 km/h 29.8 km/h
Racha vent: 50.0 km/h - -
Vent:- - WNW
Pressio: 1018.2 hPa 1015.5 hPa -
Pluja: 0.0 mm    
Historical Graphs
 
 
Tabular Data for Juliol 24, 2017
Time Temperature Dew Point Pressure Wind Wind Speed Wind Gust Humidity Rainfall Rate (Hourly) solar Conditions
00:04 19.6 °C 17.7 °C 1017.2 hPa Calm     89 % 0.0 mm 0.0 W/m2 RA
00:09 19.6 °C 17.7 °C 1017.2 hPa Calm     89 % 0.0 mm 0.0 W/m2 CLR
00:14 19.7 °C 17.8 °C 1017.2 hPa Calm     89 % 0.0 mm 0.0 W/m2 CLR
00:19 19.7 °C 17.7 °C 1017.2 hPa Calm     88 % 0.0 mm 0.0 W/m2 CLR
00:24 19.8 °C 17.7 °C 1017.2 hPa Calm     88 % 0.0 mm 0.0 W/m2 CLR
00:29 19.8 °C 17.6 °C 1017.5 hPa Calm     87 % 0.0 mm 0.0 W/m2 CLR
00:34 19.8 °C 17.4 °C 1017.5 hPa Calm     86 % 0.0 mm 0.0 W/m2 CLR
00:39 19.9 °C 17.3 °C 1017.5 hPa Calm     85 % 0.0 mm 0.0 W/m2 CLR
00:44 20.1 °C 17.3 °C 1017.5 hPa Calm     84 % 0.0 mm 0.0 W/m2 CLR
00:49 20.3 °C 16.6 °C 1017.5 hPa WNW 9.3 km/h 9.3 km/h 79 % 0.0 mm 0.0 W/m2 CLR
00:54 21.4 °C 15.7 °C 1017.8 hPa WNW 16.7 km/h 16.7 km/h 70 % 0.0 mm 0.0 W/m2 CLR
00:59 22.2 °C 15.6 °C 1017.8 hPa WNW 13.0 km/h 13.0 km/h 66 % 0.0 mm 0.0 W/m2 CLR
01:04 22.6 °C 15.4 °C 1017.8 hPa WNW 14.8 km/h 14.8 km/h 64 % 0.0 mm 0.0 W/m2 CLR
01:09 22.7 °C 15.3 °C 1017.8 hPa West 19.3 km/h 19.3 km/h 63 % 0.0 mm 0.0 W/m2 CLR
01:14 22.8 °C 14.4 °C 1017.8 hPa WNW 25.7 km/h 25.7 km/h 59 % 0.0 mm 0.0 W/m2 CLR
01:19 22.8 °C 13.9 °C 1017.8 hPa WNW 19.3 km/h 19.3 km/h 57 % 0.0 mm 0.0 W/m2 CLR
01:24 22.7 °C 13.4 °C 1017.8 hPa West 27.4 km/h 27.4 km/h 56 % 0.0 mm 0.0 W/m2 CLR
01:29 22.5 °C 13.3 °C 1017.8 hPa West 24.1 km/h 24.1 km/h 56 % 0.0 mm 0.0 W/m2 CLR
01:34 22.4 °C 13.2 °C 1017.8 hPa WSW 24.1 km/h 24.1 km/h 56 % 0.0 mm 0.0 W/m2 CLR
01:39 22.3 °C 13.1 °C 1017.8 hPa West 29.0 km/h 29.0 km/h 56 % 0.0 mm 0.0 W/m2 CLR
01:44 22.2 °C 12.9 °C 1017.8 hPa West 25.9 km/h 25.9 km/h 56 % 0.0 mm 0.0 W/m2 CLR
01:49 22.0 °C 13.1 °C 1017.8 hPa West 20.4 km/h 20.4 km/h 57 % 0.0 mm 0.0 W/m2 CLR
01:54 21.8 °C 13.2 °C 1017.8 hPa WNW 25.9 km/h 25.9 km/h 58 % 0.0 mm 0.0 W/m2 CLR
02:04 21.6 °C 13.0 °C 1017.8 hPa WNW 18.5 km/h 18.5 km/h 58 % 0.0 mm 0.0 W/m2 CLR
02:10 21.6 °C 12.7 °C 1017.8 hPa WNW 27.8 km/h 27.8 km/h 57 % 0.0 mm 0.0 W/m2 CLR
02:15 21.6 °C 13.0 °C 1018.2 hPa WNW 20.4 km/h 20.4 km/h 58 % 0.0 mm 0.0 W/m2 CLR
02:20 21.6 °C 12.9 °C 1017.8 hPa WNW 11.1 km/h 11.1 km/h 58 % 0.0 mm 0.0 W/m2 CLR
02:25 21.3 °C 13.0 °C 1017.8 hPa WNW 20.9 km/h 20.9 km/h 59 % 0.0 mm 0.0 W/m2 CLR
02:30 21.3 °C 12.9 °C 1017.8 hPa West 20.4 km/h 20.4 km/h 59 % 0.0 mm 0.0 W/m2 CLR
02:35 21.3 °C 13.2 °C 1017.8 hPa WNW 25.9 km/h 25.9 km/h 60 % 0.0 mm 0.0 W/m2 CLR
02:40 21.3 °C 13.2 °C 1017.8 hPa WNW 25.9 km/h 25.9 km/h 60 % 0.0 mm 0.0 W/m2 CLR
02:45 21.2 °C 13.2 °C 1017.8 hPa WNW 11.3 km/h 11.3 km/h 60 % 0.0 mm 0.0 W/m2 CLR
02:50 21.0 °C 13.2 °C 1017.8 hPa WNW 18.5 km/h 18.5 km/h 61 % 0.0 mm 0.0 W/m2 CLR
02:55 21.0 °C 13.2 °C 1017.8 hPa WNW 22.2 km/h 22.2 km/h 61 % 0.0 mm 0.0 W/m2 CLR
03:00 21.0 °C 13.2 °C 1017.8 hPa WNW 20.4 km/h 20.4 km/h 61 % 0.0 mm 0.0 W/m2 CLR
03:05 20.8 °C 13.3 °C 1017.8 hPa West 25.7 km/h 25.7 km/h 62 % 0.0 mm 0.0 W/m2 CLR
03:10 20.8 °C 13.2 °C 1017.5 hPa West 20.9 km/h 20.9 km/h 62 % 0.0 mm 0.0 W/m2 CLR
03:15 20.8 °C 13.1 °C 1017.5 hPa WNW 20.4 km/h 20.4 km/h 61 % 0.0 mm 0.0 W/m2 CLR
03:20 20.9 °C 13.1 °C 1017.8 hPa NW 24.1 km/h 24.1 km/h 61 % 0.0 mm 0.0 W/m2 CLR
03:25 20.8 °C 13.3 °C 1017.5 hPa West 16.7 km/h 16.7 km/h 62 % 0.0 mm 0.0 W/m2 CLR
03:30 20.7 °C 13.2 °C 1017.8 hPa WNW 29.6 km/h 29.6 km/h 62 % 0.0 mm 0.0 W/m2 CLR
03:35 20.6 °C 13.3 °C 1017.5 hPa West 22.2 km/h 22.2 km/h 63 % 0.0 mm 0.0 W/m2 CLR
03:40 20.6 °C 13.3 °C 1017.5 hPa West 18.5 km/h 18.5 km/h 63 % 0.0 mm 0.0 W/m2 CLR
03:45 20.6 °C 13.5 °C 1017.5 hPa West 19.3 km/h 19.3 km/h 64 % 0.0 mm 0.0 W/m2 CLR
03:50 20.5 °C 13.4 °C 1017.5 hPa West 24.1 km/h 24.1 km/h 64 % 0.0 mm 0.0 W/m2 CLR
03:55 20.4 °C 13.4 °C 1017.5 hPa West 20.9 km/h 20.9 km/h 64 % 0.0 mm 0.0 W/m2 CLR
04:00 20.4 °C 13.6 °C 1017.5 hPa West 27.8 km/h 27.8 km/h 65 % 0.0 mm 0.0 W/m2 CLR
04:05 20.4 °C 13.6 °C 1017.5 hPa WSW 29.6 km/h 29.6 km/h 65 % 0.0 mm 0.0 W/m2 CLR
04:10 20.3 °C 13.7 °C 1017.5 hPa West 22.2 km/h 22.2 km/h 66 % 0.0 mm 0.0 W/m2 CLR
04:15 20.2 °C 13.7 °C 1017.8 hPa WNW 18.5 km/h 18.5 km/h 66 % 0.0 mm 0.0 W/m2 CLR
04:20 20.1 °C 13.7 °C 1017.8 hPa West 20.4 km/h 20.4 km/h 67 % 0.0 mm 0.0 W/m2 CLR
04:25 19.9 °C 13.8 °C 1017.8 hPa West 11.1 km/h 11.1 km/h 68 % 0.0 mm 0.0 W/m2 CLR
04:30 19.9 °C 13.8 °C 1017.8 hPa West 9.3 km/h 9.3 km/h 68 % 0.0 mm 0.0 W/m2 CLR
04:35 19.9 °C 13.8 °C 1017.8 hPa West 11.1 km/h 11.1 km/h 68 % 0.0 mm 0.0 W/m2 CLR
04:40 19.9 °C 13.8 °C 1017.8 hPa West 20.4 km/h 20.4 km/h 68 % 0.0 mm 0.0 W/m2 CLR
04:45 19.8 °C 14.0 °C 1017.8 hPa WSW 6.4 km/h 6.4 km/h 69 % 0.0 mm 0.0 W/m2 CLR
04:50 19.8 °C 13.9 °C 1017.8 hPa West 20.4 km/h 20.4 km/h 69 % 0.0 mm 0.0 W/m2 CLR
04:55 19.8 °C 14.2 °C 1017.8 hPa WNW 7.4 km/h 7.4 km/h 70 % 0.0 mm 0.0 W/m2 CLR
05:00 19.7 °C 14.1 °C 1017.8 hPa West 14.8 km/h 14.8 km/h 70 % 0.0 mm 0.0 W/m2 CLR
05:05 19.7 °C 14.1 °C 1017.8 hPa West 16.7 km/h 16.7 km/h 70 % 0.0 mm 0.0 W/m2 CLR
05:10 19.6 °C 14.2 °C 1017.8 hPa West 7.4 km/h 7.4 km/h 71 % 0.0 mm 0.0 W/m2 CLR
05:15 19.6 °C 14.2 °C 1017.8 hPa Calm     71 % 0.0 mm 0.0 W/m2 CLR
05:20 19.4 °C 14.3 °C 1017.8 hPa SW 5.6 km/h 5.6 km/h 72 % 0.0 mm 0.0 W/m2 CLR
05:25 19.4 °C 14.3 °C 1017.8 hPa West 18.5 km/h 18.5 km/h 72 % 0.0 mm 0.0 W/m2 CLR
05:30 19.4 °C 14.3 °C 1017.8 hPa West 14.8 km/h 14.8 km/h 72 % 0.0 mm 0.0 W/m2 CLR
05:35 19.4 °C 14.3 °C 1017.8 hPa West 14.8 km/h 14.8 km/h 72 % 0.0 mm 0.0 W/m2 CLR
05:40 19.4 °C 14.3 °C 1017.8 hPa West 18.5 km/h 18.5 km/h 72 % 0.0 mm 0.0 W/m2 CLR
05:45 19.4 °C 14.5 °C 1017.8 hPa West 18.5 km/h 18.5 km/h 73 % 0.0 mm 0.0 W/m2 CLR
05:50 19.4 °C 14.4 °C 1017.8 hPa WSW 20.9 km/h 20.9 km/h 73 % 0.0 mm 0.0 W/m2 CLR
05:55 19.5 °C 14.6 °C 1017.8 hPa WSW 24.1 km/h 24.1 km/h 73 % 0.0 mm 0.0 W/m2 CLR
06:00 19.4 °C 14.5 °C 1017.8 hPa West 16.7 km/h 16.7 km/h 73 % 0.0 mm 0.0 W/m2 CLR
06:05 19.4 °C 14.5 °C 1017.8 hPa West 20.4 km/h 20.4 km/h 73 % 0.0 mm 0.0 W/m2 CLR
06:10 19.4 °C 14.4 °C 1017.8 hPa WSW 19.3 km/h 19.3 km/h 73 % 0.0 mm 0.0 W/m2 CLR
06:15 19.4 °C 14.5 °C 1017.8 hPa SW 25.9 km/h 25.9 km/h 73 % 0.0 mm 0.0 W/m2 CLR
06:20 19.4 °C 14.5 °C 1017.8 hPa WSW 25.9 km/h 25.9 km/h 73 % 0.0 mm 0.0 W/m2 CLR
06:25 19.4 °C 14.4 °C 1017.8 hPa West 16.1 km/h 16.1 km/h 73 % 0.0 mm 0.0 W/m2 CLR
06:30 19.3 °C 14.6 °C 1017.8 hPa West 19.3 km/h 19.3 km/h 74 % 0.0 mm 0.0 W/m2 CLR
06:32 19.3 °C 14.6 °C 1017.8 hPa West 16.1 km/h 16.1 km/h 74 % 0.0 mm 0.0 W/m2 CLR
06:37 19.3 °C 14.6 °C 1017.8 hPa West 22.2 km/h 22.2 km/h 74 % 0.0 mm 0.0 W/m2 OVC
06:42 19.3 °C 14.6 °C 1017.8 hPa West 25.7 km/h 25.7 km/h 74 % 0.0 mm 0.0 W/m2 OVC
06:47 19.3 °C 14.6 °C 1017.8 hPa West 20.4 km/h 20.4 km/h 74 % 0.0 mm 0.0 W/m2 OVC
06:52 19.3 °C 14.6 °C 1017.8 hPa West 18.5 km/h 18.5 km/h 74 % 0.0 mm 5.0 W/m2 OVC
06:57 19.3 °C 14.5 °C 1017.8 hPa West 24.1 km/h 24.1 km/h 74 % 0.0 mm 9.0 W/m2 BKN
07:02 19.3 °C 14.7 °C 1017.8 hPa West 24.1 km/h 24.1 km/h 75 % 0.0 mm 11.0 W/m2 BKN
07:07 19.3 °C 14.7 °C 1017.8 hPa WSW 14.8 km/h 14.8 km/h 75 % 0.0 mm 14.0 W/m2 BKN
07:12 19.3 °C 14.6 °C 1017.8 hPa SW 7.4 km/h 7.4 km/h 74 % 0.0 mm 16.0 W/m2 BKN
07:17 19.3 °C 14.8 °C 1017.8 hPa SW 7.4 km/h 7.4 km/h 75 % 0.0 mm 19.0 W/m2 BKN
07:22 19.3 °C 14.7 °C 1017.8 hPa SW 7.4 km/h 7.4 km/h 75 % 0.0 mm 25.0 W/m2 BKN
07:27 19.3 °C 14.7 °C 1017.8 hPa SW 19.3 km/h 19.3 km/h 75 % 0.0 mm 30.0 W/m2 BKN
07:32 19.3 °C 14.8 °C 1017.8 hPa West 11.3 km/h 11.3 km/h 75 % 0.0 mm 40.0 W/m2 BKN
07:37 19.4 °C 14.8 °C 1017.8 hPa West 13.0 km/h 13.0 km/h 75 % 0.0 mm 53.0 W/m2 SCT
07:42 19.5 °C 14.9 °C 1017.8 hPa West 9.3 km/h 9.3 km/h 75 % 0.0 mm 63.0 W/m2 SCT
07:47 19.6 °C 15.0 °C 1017.8 hPa WSW 18.5 km/h 18.5 km/h 75 % 0.0 mm 76.0 W/m2 FEW
07:52 19.7 °C 14.9 °C 1017.8 hPa West 18.5 km/h 18.5 km/h 74 % 0.0 mm 88.0 W/m2 FEW
07:57 19.8 °C 15.0 °C 1017.8 hPa West 19.3 km/h 19.3 km/h 74 % 0.0 mm 102.0 W/m2 CLR
08:02 19.8 °C 15.1 °C 1017.8 hPa West 16.7 km/h 16.7 km/h 74 % 0.0 mm 121.0 W/m2 CLR
08:07 20.0 °C 15.2 °C 1017.8 hPa West 20.4 km/h 20.4 km/h 74 % 0.0 mm 137.0 W/m2 CLR
08:12 20.1 °C 15.3 °C 1017.8 hPa West 25.9 km/h 25.9 km/h 74 % 0.0 mm 155.0 W/m2 CLR
08:17 20.3 °C 15.3 °C 1017.8 hPa WSW 22.2 km/h 22.2 km/h 73 % 0.0 mm 172.0 W/m2 CLR
08:22 20.4 °C 15.4 °C 1017.8 hPa West 16.7 km/h 16.7 km/h 73 % 0.0 mm 188.0 W/m2 CLR
08:27 20.6 °C 15.6 °C 1017.8 hPa WNW 31.5 km/h 31.5 km/h 73 % 0.0 mm 207.0 W/m2 CLR
08:32 20.7 °C 15.4 °C 1017.8 hPa WNW 38.9 km/h 38.9 km/h 72 % 0.0 mm 225.0 W/m2 CLR
08:37 20.8 °C 15.6 °C 1017.8 hPa West 29.6 km/h 29.6 km/h 72 % 0.0 mm 243.0 W/m2 CLR
08:42 20.9 °C 15.4 °C 1017.8 hPa WNW 33.3 km/h 33.3 km/h 71 % 0.0 mm 257.0 W/m2 CLR
08:47 21.0 °C 15.6 °C 1017.8 hPa West 29.0 km/h 29.0 km/h 71 % 0.0 mm 279.0 W/m2 CLR
08:52 21.1 °C 15.7 °C 1017.8 hPa WNW 37.0 km/h 37.0 km/h 71 % 0.0 mm 292.0 W/m2 CLR
08:57 21.2 °C 15.6 °C 1017.8 hPa WNW 35.2 km/h 35.2 km/h 70 % 0.0 mm 304.0 W/m2 CLR
09:02 21.3 °C 15.6 °C 1017.8 hPa WNW 42.6 km/h 42.6 km/h 70 % 0.0 mm 316.0 W/m2 CLR
09:07 21.4 °C 15.7 °C 1017.8 hPa WNW 31.5 km/h 31.5 km/h 70 % 0.0 mm 271.0 W/m2 CLR
09:12 21.4 °C 15.7 °C 1017.8 hPa WNW 27.8 km/h 27.8 km/h 70 % 0.0 mm 348.0 W/m2 CLR
09:17 21.7 °C 15.9 °C 1017.8 hPa WNW 31.5 km/h 31.5 km/h 70 % 0.0 mm 366.0 W/m2 CLR
09:22 21.8 °C 15.8 °C 1017.8 hPa WNW 33.8 km/h 33.8 km/h 69 % 0.0 mm 385.0 W/m2 CLR
09:27 21.9 °C 15.9 °C 1017.8 hPa WNW 31.5 km/h 31.5 km/h 69 % 0.0 mm 397.0 W/m2 CLR
09:32 21.9 °C 15.8 °C 1017.8 hPa WNW 35.2 km/h 35.2 km/h 68 % 0.0 mm 410.0 W/m2 CLR
09:37 22.1 °C 15.9 °C 1017.8 hPa WNW 33.3 km/h 33.3 km/h 68 % 0.0 mm 429.0 W/m2 CLR
09:42 22.2 °C 16.1 °C 1017.8 hPa WNW 27.8 km/h 27.8 km/h 68 % 0.0 mm 436.0 W/m2 CLR
09:47 22.3 °C 15.9 °C 1017.8 hPa NW 37.0 km/h 37.0 km/h 67 % 0.0 mm 452.0 W/m2 CLR
09:52 22.4 °C 15.9 °C 1018.2 hPa NW 31.5 km/h 31.5 km/h 67 % 0.0 mm 478.0 W/m2 CLR
09:57 22.5 °C 16.1 °C 1017.8 hPa WNW 29.0 km/h 29.0 km/h 67 % 0.0 mm 374.0 W/m2 CLR
10:02 22.6 °C 16.2 °C 1017.8 hPa WNW 29.6 km/h 29.6 km/h 67 % 0.0 mm 499.0 W/m2 CLR
10:07 22.8 °C 16.2 °C 1017.8 hPa WNW 29.6 km/h 29.6 km/h 66 % 0.0 mm 519.0 W/m2 CLR
10:12 23.0 °C 16.1 °C 1017.8 hPa NNW 38.9 km/h 38.9 km/h 65 % 0.0 mm 541.0 W/m2 CLR
10:17 23.1 °C 16.2 °C 1017.8 hPa NW 31.5 km/h 31.5 km/h 65 % 0.0 mm 554.0 W/m2 CLR
10:22 23.3 °C 16.1 °C 1017.8 hPa NW 25.9 km/h 25.9 km/h 64 % 0.0 mm 570.0 W/m2 CLR
10:27 23.5 °C 16.1 °C 1017.8 hPa NNW 32.2 km/h 32.2 km/h 63 % 0.0 mm 589.0 W/m2 CLR
10:32 23.6 °C 16.2 °C 1017.8 hPa NW 29.6 km/h 29.6 km/h 63 % 0.0 mm 615.0 W/m2 CLR
10:37 23.7 °C 16.0 °C 1017.8 hPa NW 24.1 km/h 24.1 km/h 62 % 0.0 mm 656.0 W/m2 CLR
10:42 24.1 °C 16.1 °C 1017.8 hPa NW 27.8 km/h 27.8 km/h 61 % 0.0 mm 654.0 W/m2 CLR
10:47 24.2 °C 15.9 °C 1017.5 hPa WNW 31.5 km/h 31.5 km/h 60 % 0.0 mm 663.0 W/m2 CLR
10:52 24.3 °C 15.8 °C 1017.5 hPa NNW 29.6 km/h 29.6 km/h 59 % 0.0 mm 721.0 W/m2 CLR
10:57 24.3 °C 15.8 °C 1017.5 hPa NNW 35.4 km/h 35.4 km/h 59 % 0.0 mm 777.0 W/m2 CLR
11:02 24.6 °C 15.5 °C 1017.5 hPa NNW 38.9 km/h 38.9 km/h 57 % 0.0 mm 724.0 W/m2 CLR
11:07 24.6 °C 15.5 °C 1017.5 hPa NNW 33.8 km/h 33.8 km/h 57 % 0.0 mm 889.0 W/m2 CLR
11:12 24.5 °C 15.7 °C 1017.5 hPa NNW 38.9 km/h 38.9 km/h 58 % 0.0 mm 923.0 W/m2 CLR
11:17 24.6 °C 15.7 °C 1017.5 hPa NNW 31.5 km/h 31.5 km/h 58 % 0.0 mm 410.0 W/m2 CLR
11:23 24.2 °C 15.7 °C 1017.5 hPa NW 35.2 km/h 35.2 km/h 59 % 0.0 mm 410.0 W/m2 CLR
11:28 24.4 °C 15.8 °C 1017.5 hPa WNW 35.4 km/h 35.4 km/h 59 % 0.0 mm 798.0 W/m2 CLR
11:33 24.8 °C 16.2 °C 1017.5 hPa NW 29.0 km/h 29.0 km/h 59 % 0.0 mm 786.0 W/m2 CLR
11:38 24.9 °C 16.3 °C 1017.5 hPa WNW 29.6 km/h 29.6 km/h 59 % 0.0 mm 796.0 W/m2 CLR
11:43 25.0 °C 15.9 °C 1017.5 hPa West 29.6 km/h 29.6 km/h 57 % 0.0 mm 831.0 W/m2 CLR
11:48 25.2 °C 15.8 °C 1017.5 hPa West 42.6 km/h 42.6 km/h 56 % 0.0 mm 824.0 W/m2 CLR
11:53 25.2 °C 15.8 °C 1017.5 hPa NW 38.9 km/h 38.9 km/h 56 % 0.0 mm 805.0 W/m2 CLR
11:58 25.2 °C 15.3 °C 1017.5 hPa NNW 40.7 km/h 40.7 km/h 54 % 0.0 mm 817.0 W/m2 CLR
12:03 25.1 °C 15.7 °C 1017.8 hPa WNW 35.2 km/h 35.2 km/h 56 % 0.0 mm 833.0 W/m2 CLR
12:08 25.1 °C 15.7 °C 1017.5 hPa WNW 42.6 km/h 42.6 km/h 56 % 0.0 mm 826.0 W/m2 CLR
12:13 25.2 °C 15.8 °C 1017.5 hPa WNW 37.0 km/h 37.0 km/h 56 % 0.0 mm 831.0 W/m2 CLR
12:18 25.4 °C 16.3 °C 1017.5 hPa NW 24.1 km/h 24.1 km/h 57 % 0.0 mm 842.0 W/m2 CLR
12:23 25.8 °C 15.8 °C 1017.5 hPa NNW 38.9 km/h 38.9 km/h 54 % 0.0 mm 867.0 W/m2 CLR
12:28 25.7 °C 15.7 °C 1017.5 hPa WNW 35.2 km/h 35.2 km/h 54 % 0.0 mm 860.0 W/m2 CLR
12:33 25.6 °C 15.6 °C 1017.5 hPa NW 37.0 km/h 37.0 km/h 54 % 0.0 mm 863.0 W/m2 CLR
12:38 25.6 °C 15.8 °C 1017.5 hPa NNW 33.3 km/h 33.3 km/h 55 % 0.0 mm 865.0 W/m2 CLR
12:43 26.0 °C 16.6 °C 1017.2 hPa WNW 31.5 km/h 31.5 km/h 56 % 0.0 mm 870.0 W/m2 CLR
12:48 26.0 °C 15.7 °C 1017.2 hPa WNW 38.9 km/h 38.9 km/h 53 % 0.0 mm 889.0 W/m2 CLR
12:53 26.1 °C 16.1 °C 1017.2 hPa NW 46.3 km/h 46.3 km/h 54 % 0.0 mm 914.0 W/m2 CLR
12:58 26.2 °C 15.9 °C 1017.2 hPa NW 37.0 km/h 37.0 km/h 53 % 0.0 mm 896.0 W/m2 CLR
13:03 26.3 °C 15.6 °C 1017.2 hPa NNW 35.2 km/h 35.2 km/h 52 % 0.0 mm 900.0 W/m2 CLR
13:08 26.3 °C 15.7 °C 1017.2 hPa NW 40.7 km/h 40.7 km/h 52 % 0.0 mm 918.0 W/m2 CLR
13:13 26.4 °C 15.5 °C 1017.2 hPa NNW 38.9 km/h 38.9 km/h 51 % 0.0 mm 907.0 W/m2 CLR
13:18 26.3 °C 15.4 °C 1017.2 hPa NW 35.2 km/h 35.2 km/h 51 % 0.0 mm 912.0 W/m2 CLR
13:23 26.5 °C 15.2 °C 1016.8 hPa NNW 46.3 km/h 46.3 km/h 50 % 0.0 mm 925.0 W/m2 CLR
13:28 26.7 °C 15.4 °C 1016.8 hPa NNW 33.3 km/h 33.3 km/h 50 % 0.0 mm 923.0 W/m2 CLR
13:33 26.7 °C 15.1 °C 1017.2 hPa NNW 42.6 km/h 42.6 km/h 49 % 0.0 mm 919.0 W/m2 CLR
13:38 26.7 °C 15.1 °C 1016.8 hPa WNW 46.3 km/h 46.3 km/h 49 % 0.0 mm 921.0 W/m2 CLR
13:43 26.7 °C 15.1 °C 1016.8 hPa North 42.6 km/h 42.6 km/h 49 % 0.0 mm 932.0 W/m2 CLR
13:48 26.9 °C 14.6 °C 1016.8 hPa NW 35.4 km/h 35.4 km/h 47 % 0.0 mm 933.0 W/m2 CLR
13:49 26.9 °C 14.6 °C 1016.8 hPa NNW 33.3 km/h 33.3 km/h 47 % 0.0 mm 933.0 W/m2 CLR
13:54 26.9 °C 14.7 °C 1016.8 hPa NW 40.7 km/h 40.7 km/h 47 % 0.0 mm 926.0 W/m2 CLR
13:59 27.0 °C 15.1 °C 1016.8 hPa NNW 46.3 km/h 46.3 km/h 48 % 0.0 mm 932.0 W/m2 CLR
14:04 26.9 °C 14.7 °C 1016.8 hPa NNW 35.2 km/h 35.2 km/h 47 % 0.0 mm 935.0 W/m2 CLR
14:09 27.3 °C 15.1 °C 1016.8 hPa NW 42.6 km/h 42.6 km/h 47 % 0.0 mm 933.0 W/m2 CLR
14:14 27.2 °C 14.6 °C 1016.8 hPa NW 38.9 km/h 38.9 km/h 46 % 0.0 mm 928.0 W/m2 CLR
14:19 27.3 °C 14.7 °C 1016.8 hPa WNW 38.6 km/h 38.6 km/h 46 % 0.0 mm 933.0 W/m2 CLR
14:24 27.4 °C 14.8 °C 1016.5 hPa NW 38.9 km/h 38.9 km/h 46 % 0.0 mm 928.0 W/m2 CLR
14:29 27.5 °C 14.5 °C 1016.8 hPa NNW 35.2 km/h 35.2 km/h 45 % 0.0 mm 928.0 W/m2 CLR
14:34 27.6 °C 13.9 °C 1016.5 hPa NNW 48.1 km/h 48.1 km/h 43 % 0.0 mm 926.0 W/m2 CLR
14:39 27.6 °C 14.2 °C 1016.5 hPa NW 33.3 km/h 33.3 km/h 44 % 0.0 mm 921.0 W/m2 CLR
14:44 27.6 °C 14.3 °C 1016.5 hPa North 37.0 km/h 37.0 km/h 44 % 0.0 mm 919.0 W/m2 CLR
14:49 27.8 °C 13.7 °C 1016.5 hPa WNW 35.2 km/h 35.2 km/h 42 % 0.0 mm 916.0 W/m2 CLR
14:54 28.0 °C 13.5 °C 1016.5 hPa WNW 48.1 km/h 48.1 km/h 41 % 0.0 mm 912.0 W/m2 CLR
14:59 28.0 °C 13.5 °C 1016.5 hPa North 50.0 km/h 50.0 km/h 41 % 0.0 mm 911.0 W/m2 CLR
15:04 27.9 °C 13.4 °C 1016.5 hPa NNW 40.7 km/h 40.7 km/h 41 % 0.0 mm 904.0 W/m2 CLR
15:09 28.2 °C 13.7 °C 1016.5 hPa NW 42.6 km/h 42.6 km/h 41 % 0.0 mm 900.0 W/m2 CLR
15:14 28.2 °C 13.7 °C 1016.5 hPa North 35.2 km/h 35.2 km/h 41 % 0.0 mm 898.0 W/m2 CLR
15:19 28.2 °C 14.1 °C 1016.1 hPa WNW 35.2 km/h 35.2 km/h 42 % 0.0 mm 891.0 W/m2 CLR
15:24 28.2 °C 14.4 °C 1016.1 hPa NNW 33.8 km/h 33.8 km/h 43 % 0.0 mm 886.0 W/m2 CLR
15:29 28.4 °C 14.3 °C 1016.1 hPa NW 37.0 km/h 37.0 km/h 42 % 0.0 mm 879.0 W/m2 CLR
15:34 28.5 °C 13.9 °C 1016.1 hPa NNW 29.6 km/h 29.6 km/h 41 % 0.0 mm 872.0 W/m2 CLR
15:39 28.4 °C 13.6 °C 1016.1 hPa NW 40.7 km/h 40.7 km/h 40 % 0.0 mm 868.0 W/m2 CLR
15:44 28.3 °C 13.8 °C 1016.1 hPa NW 40.2 km/h 40.2 km/h 41 % 0.0 mm 861.0 W/m2 CLR
15:49 28.2 °C 13.7 °C 1015.8 hPa NW 29.6 km/h 29.6 km/h 41 % 0.0 mm 854.0 W/m2 CLR
15:54 28.7 °C 13.3 °C 1015.8 hPa WNW 40.7 km/h 40.7 km/h 39 % 0.0 mm 846.0 W/m2 CLR
15:59 28.7 °C 13.3 °C 1015.8 hPa NNW 48.1 km/h 48.1 km/h 39 % 0.0 mm 838.0 W/m2 CLR
16:04 28.3 °C 13.1 °C 1016.1 hPa NW 50.0 km/h 50.0 km/h 39 % 0.0 mm 828.0 W/m2 CLR
16:09 28.3 °C 13.8 °C 1016.1 hPa NW 30.6 km/h 30.6 km/h 41 % 0.0 mm 816.0 W/m2 CLR
16:10 28.4 °C 13.1 °C 1015.8 hPa WNW 46.3 km/h 46.3 km/h 39 % 0.0 mm 816.0 W/m2 CLR
16:15 28.4 °C 12.8 °C 1016.1 hPa NNW 44.4 km/h 44.4 km/h 38 % 0.0 mm 809.0 W/m2 CLR
16:20 28.3 °C 13.0 °C 1016.1 hPa WNW 46.3 km/h 46.3 km/h 39 % 0.0 mm 798.0 W/m2 CLR
16:25 28.3 °C 13.0 °C 1016.1 hPa NNW 48.1 km/h 48.1 km/h 39 % 0.0 mm 791.0 W/m2 CLR
16:30 28.3 °C 13.4 °C 1016.1 hPa NNW 42.6 km/h 42.6 km/h 40 % 0.0 mm 780.0 W/m2 CLR
16:35 28.3 °C 13.4 °C 1015.8 hPa NNW 42.6 km/h 42.6 km/h 40 % 0.0 mm 768.0 W/m2 CLR
16:40 28.2 °C 13.3 °C 1015.8 hPa NNW 37.0 km/h 37.0 km/h 40 % 0.0 mm 756.0 W/m2 CLR
16:45 28.4 °C 13.6 °C 1015.8 hPa WNW 38.9 km/h 38.9 km/h 40 % 0.0 mm 745.0 W/m2 CLR
16:50 28.5 °C 12.8 °C 1015.8 hPa NNW 37.0 km/h 37.0 km/h 38 % 0.0 mm 738.0 W/m2 CLR
16:55 28.5 °C 12.4 °C 1015.8 hPa NW 40.7 km/h 40.7 km/h 37 % 0.0 mm 726.0 W/m2 CLR
17:00 28.4 °C 11.9 °C 1015.8 hPa NNW 42.6 km/h 42.6 km/h 36 % 0.0 mm 712.0 W/m2 CLR
17:05 28.5 °C 12.0 °C 1015.8 hPa NW 42.6 km/h 42.6 km/h 36 % 0.0 mm 701.0 W/m2 CLR
17:10 28.7 °C 12.1 °C 1015.5 hPa NW 33.3 km/h 33.3 km/h 36 % 0.0 mm 689.0 W/m2 CLR
17:15 28.7 °C 12.1 °C 1015.5 hPa NW 38.9 km/h 38.9 km/h 36 % 0.0 mm 675.0 W/m2 CLR
17:20 28.8 °C 12.6 °C 1015.8 hPa NW 33.3 km/h 33.3 km/h 37 % 0.0 mm 661.0 W/m2 CLR
17:25 28.8 °C 12.6 °C 1015.5 hPa NNW 33.3 km/h 33.3 km/h 37 % 0.0 mm 650.0 W/m2 CLR
17:40 28.4 °C 11.9 °C 1015.5 hPa NW 41.8 km/h 41.8 km/h 36 % 0.0 mm 608.0 W/m2 OVC
17:45 28.5 °C 12.0 °C 1015.5 hPa NNW 41.8 km/h 41.8 km/h 36 % 0.0 mm 592.0 W/m2 CLR
17:50 28.4 °C 11.9 °C 1015.5 hPa NNW 45.1 km/h 45.1 km/h 36 % 0.0 mm 580.0 W/m2 CLR
17:55 28.3 °C 12.7 °C 1015.5 hPa NNW 43.4 km/h 43.4 km/h 38 % 0.0 mm 563.0 W/m2 CLR
18:00 28.2 °C 12.2 °C 1015.8 hPa NNW 41.8 km/h 41.8 km/h 37 % 0.0 mm 554.0 W/m2 CLR
18:05 28.1 °C 11.6 °C 1015.5 hPa NW 43.4 km/h 43.4 km/h 36 % 0.0 mm 536.0 W/m2 CLR
18:10 28.1 °C 12.4 °C 1015.5 hPa NNW 37.0 km/h 37.0 km/h 38 % 0.0 mm 520.0 W/m2 CLR
18:16 28.1 °C 12.4 °C 1015.5 hPa NW 46.3 km/h 46.3 km/h 38 % 0.0 mm 506.0 W/m2 CLR
18:21 27.9 °C 13.1 °C 1015.5 hPa NW 31.5 km/h 31.5 km/h 40 % 0.0 mm 492.0 W/m2 CLR
18:26 28.0 °C 12.8 °C 1015.8 hPa NNW 43.4 km/h 43.4 km/h 39 % 0.0 mm 480.0 W/m2 CLR
18:31 27.8 °C 12.6 °C 1015.8 hPa NNW 42.6 km/h 42.6 km/h 39 % 0.0 mm 461.0 W/m2 CLR
18:36 27.7 °C 12.9 °C 1015.8 hPa NNW 48.1 km/h 48.1 km/h 40 % 0.0 mm 443.0 W/m2 CLR
18:41 27.7 °C 12.8 °C 1015.5 hPa NNW 42.6 km/h 42.6 km/h 40 % 0.0 mm 434.0 W/m2 CLR
18:46 27.8 °C 12.6 °C 1015.5 hPa WNW 31.5 km/h 31.5 km/h 39 % 0.0 mm 415.0 W/m2 CLR
18:51 27.7 °C 12.5 °C 1015.8 hPa NW 41.8 km/h 41.8 km/h 39 % 0.0 mm 396.0 W/m2 CLR
18:56 27.4 °C 12.2 °C 1015.8 hPa NNW 42.6 km/h 42.6 km/h 39 % 0.0 mm 383.0 W/m2 CLR
19:01 27.3 °C 12.6 °C 1015.8 hPa NW 31.5 km/h 31.5 km/h 40 % 0.0 mm 364.0 W/m2 CLR
19:06 27.2 °C 12.4 °C 1015.8 hPa NW 40.2 km/h 40.2 km/h 40 % 0.0 mm 350.0 W/m2 CLR
19:11 27.2 °C 12.4 °C 1015.8 hPa NW 38.9 km/h 38.9 km/h 40 % 0.0 mm 336.0 W/m2 CLR
19:16 27.2 °C 12.4 °C 1015.5 hPa WNW 27.8 km/h 27.8 km/h 40 % 0.0 mm 318.0 W/m2 CLR
19:21 27.2 °C 12.8 °C 1015.5 hPa NW 38.9 km/h 38.9 km/h 41 % 0.0 mm 302.0 W/m2 CLR
19:26 27.2 °C 12.8 °C 1015.5 hPa NNW 50.0 km/h 50.0 km/h 41 % 0.0 mm 287.0 W/m2 CLR
19:31 27.0 °C 12.6 °C 1015.5 hPa NW 48.3 km/h 48.3 km/h 41 % 0.0 mm 267.0 W/m2 CLR
19:36 26.8 °C 12.8 °C 1015.8 hPa NW 42.6 km/h 42.6 km/h 42 % 0.0 mm 253.0 W/m2 CLR
19:41 26.6 °C 12.7 °C 1015.8 hPa NW 42.6 km/h 42.6 km/h 42 % 0.0 mm 237.0 W/m2 CLR
19:46 26.7 °C 12.7 °C 1015.8 hPa NW 38.6 km/h 38.6 km/h 42 % 0.0 mm 220.0 W/m2 CLR
19:51 26.7 °C 12.7 °C 1015.8 hPa NNW 31.5 km/h 31.5 km/h 42 % 0.0 mm 202.0 W/m2 CLR
19:56 26.6 °C 12.2 °C 1015.8 hPa NNW 42.6 km/h 42.6 km/h 41 % 0.0 mm 185.0 W/m2 CLR
20:01 26.3 °C 12.3 °C 1015.8 hPa NNW 38.9 km/h 38.9 km/h 42 % 0.0 mm 163.0 W/m2 CLR
20:06 26.2 °C 12.6 °C 1015.8 hPa NW 25.9 km/h 25.9 km/h 43 % 0.0 mm 149.0 W/m2 CLR
20:11 26.2 °C 12.6 °C 1015.8 hPa NW 31.5 km/h 31.5 km/h 43 % 0.0 mm 134.0 W/m2 CLR
20:16 26.1 °C 12.8 °C 1015.8 hPa NW 31.5 km/h 31.5 km/h 44 % 0.0 mm 114.0 W/m2 CLR
20:21 25.9 °C 12.8 °C 1016.1 hPa WNW 27.8 km/h 27.8 km/h 44 % 0.0 mm 98.0 W/m2 CLR
20:26 25.8 °C 12.9 °C 1016.1 hPa NNW 31.5 km/h 31.5 km/h 45 % 0.0 mm 84.0 W/m2 FEW
20:31 25.6 °C 12.7 °C 1016.1 hPa NW 38.6 km/h 38.6 km/h 45 % 0.0 mm 70.0 W/m2 FEW
20:36 25.3 °C 12.9 °C 1016.1 hPa NNW 40.7 km/h 40.7 km/h 46 % 0.0 mm 56.0 W/m2 SCT
20:41 25.1 °C 12.7 °C 1016.1 hPa NW 40.7 km/h 40.7 km/h 46 % 0.0 mm 42.0 W/m2 BKN
20:46 24.9 °C 13.2 °C 1016.1 hPa NNW 44.4 km/h 44.4 km/h 48 % 0.0 mm 33.0 W/m2 BKN
20:51 24.8 °C 13.1 °C 1016.1 hPa NW 33.8 km/h 33.8 km/h 48 % 0.0 mm 25.0 W/m2 BKN
20:56 24.6 °C 12.6 °C 1016.5 hPa NW 44.4 km/h 44.4 km/h 47 % 0.0 mm 18.0 W/m2 BKN
21:01 24.4 °C 12.4 °C 1016.5 hPa WNW 35.2 km/h 35.2 km/h 47 % 0.0 mm 12.0 W/m2 BKN
21:06 24.3 °C 12.6 °C 1016.5 hPa NW 37.0 km/h 37.0 km/h 48 % 0.0 mm 11.0 W/m2 BKN
21:11 24.2 °C 12.4 °C 1016.5 hPa NW 38.9 km/h 38.9 km/h 48 % 0.0 mm 9.0 W/m2 BKN
21:16 24.1 °C 12.7 °C 1016.5 hPa WNW 37.0 km/h 37.0 km/h 49 % 0.0 mm 7.0 W/m2 BKN
21:21 23.9 °C 12.5 °C 1016.5 hPa NW 42.6 km/h 42.6 km/h 49 % 0.0 mm 5.0 W/m2 OVC
21:26 23.8 °C 12.7 °C 1016.5 hPa NW 37.0 km/h 37.0 km/h 50 % 0.0 mm 0.0 W/m2 OVC
21:32 23.7 °C 12.6 °C 1016.8 hPa NNW 31.5 km/h 31.5 km/h 50 % 0.0 mm 0.0 W/m2 OVC
21:37 23.6 °C 12.6 °C 1016.8 hPa NW 42.6 km/h 42.6 km/h 50 % 0.0 mm 0.0 W/m2 CLR
21:42 23.5 °C 12.8 °C 1016.8 hPa NW 27.8 km/h 27.8 km/h 51 % 0.0 mm 0.0 W/m2 CLR
21:47 23.3 °C 12.6 °C 1016.8 hPa NW 33.3 km/h 33.3 km/h 51 % 0.0 mm 0.0 W/m2 CLR
21:52 23.3 °C 12.6 °C 1016.8 hPa WNW 25.9 km/h 25.9 km/h 51 % 0.0 mm 0.0 W/m2 CLR
21:57 23.2 °C 12.8 °C 1016.8 hPa NW 38.9 km/h 38.9 km/h 52 % 0.0 mm 0.0 W/m2 CLR
22:02 23.0 °C 12.6 °C 1016.8 hPa WNW 42.6 km/h 42.6 km/h 52 % 0.0 mm 0.0 W/m2 CLR
22:07 22.9 °C 12.8 °C 1017.2 hPa NW 31.5 km/h 31.5 km/h 53 % 0.0 mm 0.0 W/m2 CLR
22:12 22.7 °C 12.9 °C 1017.2 hPa NW 32.2 km/h 32.2 km/h 54 % 0.0 mm 0.0 W/m2 CLR
22:17 22.6 °C 13.1 °C 1017.2 hPa NW 31.5 km/h 31.5 km/h 55 % 0.0 mm 0.0 W/m2 CLR
22:22 22.4 °C 12.9 °C 1017.5 hPa WNW 29.6 km/h 29.6 km/h 55 % 0.0 mm 0.0 W/m2 CLR
22:27 22.4 °C 12.9 °C 1017.5 hPa NW 38.9 km/h 38.9 km/h 55 % 0.0 mm 0.0 W/m2 CLR
22:32 22.3 °C 13.1 °C 1017.5 hPa WNW 22.2 km/h 22.2 km/h 56 % 0.0 mm 0.0 W/m2 CLR
22:37 22.2 °C 13.0 °C 1017.5 hPa West 37.0 km/h 37.0 km/h 56 % 0.0 mm 0.0 W/m2 CLR
22:42 22.2 °C 13.3 °C 1017.5 hPa NW 31.5 km/h 31.5 km/h 57 % 0.0 mm 0.0 W/m2 CLR
22:47 22.1 °C 13.2 °C 1017.5 hPa NW 29.6 km/h 29.6 km/h 57 % 0.0 mm 0.0 W/m2 CLR
22:52 22.1 °C 13.4 °C 1017.5 hPa WNW 27.8 km/h 27.8 km/h 58 % 0.0 mm 0.0 W/m2 CLR
22:57 21.9 °C 13.3 °C 1017.8 hPa WNW 31.5 km/h 31.5 km/h 58 % 0.0 mm 0.0 W/m2 CLR
23:02 21.9 °C 13.3 °C 1017.8 hPa WNW 25.9 km/h 25.9 km/h 58 % 0.0 mm 0.0 W/m2 CLR
23:07 21.8 °C 13.4 °C 1017.8 hPa WNW 27.8 km/h 27.8 km/h 59 % 0.0 mm 0.0 W/m2 CLR
23:12 21.6 °C 13.3 °C 1017.8 hPa WNW 25.9 km/h 25.9 km/h 59 % 0.0 mm 0.0 W/m2 CLR
23:17 21.5 °C 13.4 °C 1017.8 hPa WNW 29.6 km/h 29.6 km/h 60 % 0.0 mm 0.0 W/m2 CLR
23:22 21.4 °C 13.3 °C 1017.8 hPa WNW 37.0 km/h 37.0 km/h 60 % 0.0 mm 0.0 W/m2 CLR
23:27 21.3 °C 13.4 °C 1017.8 hPa NW 27.8 km/h 27.8 km/h 61 % 0.0 mm 0.0 W/m2 CLR
23:32 21.2 °C 13.3 °C 1017.8 hPa NW 44.4 km/h 44.4 km/h 61 % 0.0 mm 0.0 W/m2 CLR
23:37 21.1 °C 13.5 °C 1017.8 hPa WNW 31.5 km/h 31.5 km/h 62 % 0.0 mm 0.0 W/m2 CLR
23:42 21.0 °C 13.4 °C 1017.8 hPa West 33.3 km/h 33.3 km/h 62 % 0.0 mm 0.0 W/m2 CLR
23:47 20.9 °C 13.3 °C 1018.2 hPa WNW 33.3 km/h 33.3 km/h 62 % 0.0 mm 0.0 W/m2 CLR
23:52 20.8 °C 13.5 °C 1018.2 hPa WNW 45.1 km/h 45.1 km/h 63 % 0.0 mm 0.0 W/m2 CLR
23:57 20.7 °C 13.4 °C 1018.2 hPa WNW 33.3 km/h 33.3 km/h 63 % 0.0 mm 0.0 W/m2 CLR
Lo Temps de Massalio
Compliments of Weather Underground - 1.25 mb